sensor_id;sensor_type;location;lat;lon;timestamp;temperature;humidity
64685;DHT22;51109;47.414;18.954;2023-04-03T00:01:38;6.00;99.90
64685;DHT22;51109;47.414;18.954;2023-04-03T00:04:05;6.00;99.90
64685;DHT22;51109;47.414;18.954;2023-04-03T00:06:31;6.00;99.90
64685;DHT22;51109;47.414;18.954;2023-04-03T00:08:58;6.00;99.90
64685;DHT22;51109;47.414;18.954;2023-04-03T00:11:24;6.00;99.90
64685;DHT22;51109;47.414;18.954;2023-04-03T00:13:51;6.00;99.90
64685;DHT22;51109;47.414;18.954;2023-04-03T00:16:17;5.90;99.90
64685;DHT22;51109;47.414;18.954;2023-04-03T00:18:43;5.90;99.90
64685;DHT22;51109;47.414;18.954;2023-04-03T00:21:13;5.90;99.90
64685;DHT22;51109;47.414;18.954;2023-04-03T00:23:39;5.90;99.90
64685;DHT22;51109;47.414;18.954;2023-04-03T00:26:12;5.90;99.90
64685;DHT22;51109;47.414;18.954;2023-04-03T00:28:38;5.90;99.90
64685;DHT22;51109;47.414;18.954;2023-04-03T00:31:04;5.90;99.90
64685;DHT22;51109;47.414;18.954;2023-04-03T00:33:30;5.80;99.90
64685;DHT22;51109;47.414;18.954;2023-04-03T00:35:56;5.80;99.90
64685;DHT22;51109;47.414;18.954;2023-04-03T00:38:22;5.80;99.90
64685;DHT22;51109;47.414;18.954;2023-04-03T00:40:49;5.70;99.90
64685;DHT22;51109;47.414;18.954;2023-04-03T00:43:19;5.70;99.90
64685;DHT22;51109;47.414;18.954;2023-04-03T00:45:51;5.70;99.90
64685;DHT22;51109;47.414;18.954;2023-04-03T00:48:42;5.70;99.90
64685;DHT22;51109;47.414;18.954;2023-04-03T00:51:11;5.70;99.90
64685;DHT22;51109;47.414;18.954;2023-04-03T00:53:54;5.60;99.90
64685;DHT22;51109;47.414;18.954;2023-04-03T00:56:23;5.70;99.90
64685;DHT22;51109;47.414;18.954;2023-04-03T00:59:02;5.70;99.90
64685;DHT22;51109;47.414;18.954;2023-04-03T01:01:29;5.70;99.90
64685;DHT22;51109;47.414;18.954;2023-04-03T01:03:58;5.60;99.90
64685;DHT22;51109;47.414;18.954;2023-04-03T01:06:27;5.60;99.90
64685;DHT22;51109;47.414;18.954;2023-04-03T01:08:55;5.60;99.90
64685;DHT22;51109;47.414;18.954;2023-04-03T01:11:21;5.70;99.90
64685;DHT22;51109;47.414;18.954;2023-04-03T01:13:47;5.60;99.90
64685;DHT22;51109;47.414;18.954;2023-04-03T01:16:14;5.60;99.90
64685;DHT22;51109;47.414;18.954;2023-04-03T01:18:41;5.60;99.90
64685;DHT22;51109;47.414;18.954;2023-04-03T01:21:27;5.60;99.90
64685;DHT22;51109;47.414;18.954;2023-04-03T01:26:32;5.60;99.90
64685;DHT22;51109;47.414;18.954;2023-04-03T01:28:59;5.60;99.90
64685;DHT22;51109;47.414;18.954;2023-04-03T01:34:00;5.60;99.90
64685;DHT22;51109;47.414;18.954;2023-04-03T01:36:29;5.50;99.90
64685;DHT22;51109;47.414;18.954;2023-04-03T01:38:57;5.50;99.90
64685;DHT22;51109;47.414;18.954;2023-04-03T01:41:24;5.50;99.90
64685;DHT22;51109;47.414;18.954;2023-04-03T01:43:51;5.50;99.90
64685;DHT22;51109;47.414;18.954;2023-04-03T01:46:18;5.40;99.90
64685;DHT22;51109;47.414;18.954;2023-04-03T01:48:44;5.40;99.90
64685;DHT22;51109;47.414;18.954;2023-04-03T01:51:10;5.40;99.90
64685;DHT22;51109;47.414;18.954;2023-04-03T01:53:36;5.40;99.90
64685;DHT22;51109;47.414;18.954;2023-04-03T01:56:02;5.30;99.90
64685;DHT22;51109;47.414;18.954;2023-04-03T01:58:29;5.30;99.90
64685;DHT22;51109;47.414;18.954;2023-04-03T02:00:55;5.40;99.90
64685;DHT22;51109;47.414;18.954;2023-04-03T02:03:21;5.30;99.90
64685;DHT22;51109;47.414;18.954;2023-04-03T02:05:47;5.30;99.90
64685;DHT22;51109;47.414;18.954;2023-04-03T02:08:13;5.30;99.90
64685;DHT22;51109;47.414;18.954;2023-04-03T02:10:39;5.30;99.90
64685;DHT22;51109;47.414;18.954;2023-04-03T02:13:05;5.30;99.90
64685;DHT22;51109;47.414;18.954;2023-04-03T02:15:31;5.20;99.90
64685;DHT22;51109;47.414;18.954;2023-04-03T02:17:57;5.20;99.90
64685;DHT22;51109;47.414;18.954;2023-04-03T02:20:23;5.20;99.90
64685;DHT22;51109;47.414;18.954;2023-04-03T02:22:49;5.20;99.90
64685;DHT22;51109;47.414;18.954;2023-04-03T02:25:15;5.20;99.90
64685;DHT22;51109;47.414;18.954;2023-04-03T02:27:41;5.20;99.90
64685;DHT22;51109;47.414;18.954;2023-04-03T02:30:07;5.20;99.90
64685;DHT22;51109;47.414;18.954;2023-04-03T02:32:35;5.10;99.90
64685;DHT22;51109;47.414;18.954;2023-04-03T02:35:00;5.20;99.90
64685;DHT22;51109;47.414;18.954;2023-04-03T02:37:26;5.10;99.90
64685;DHT22;51109;47.414;18.954;2023-04-03T02:39:52;5.00;99.90
64685;DHT22;51109;47.414;18.954;2023-04-03T02:42:18;5.00;99.90
64685;DHT22;51109;47.414;18.954;2023-04-03T02:44:44;5.00;99.90
64685;DHT22;51109;47.414;18.954;2023-04-03T02:47:10;5.00;99.90
64685;DHT22;51109;47.414;18.954;2023-04-03T02:49:36;5.00;99.90
64685;DHT22;51109;47.414;18.954;2023-04-03T02:52:02;4.90;99.90
64685;DHT22;51109;47.414;18.954;2023-04-03T02:54:27;4.90;99.90
64685;DHT22;51109;47.414;18.954;2023-04-03T02:56:56;4.80;99.90
64685;DHT22;51109;47.414;18.954;2023-04-03T02:59:22;4.80;99.90
64685;DHT22;51109;47.414;18.954;2023-04-03T03:04:42;4.90;99.90
64685;DHT22;51109;47.414;18.954;2023-04-03T03:07:08;4.80;99.90
64685;DHT22;51109;47.414;18.954;2023-04-03T03:09:34;4.80;99.90
64685;DHT22;51109;47.414;18.954;2023-04-03T03:12:00;4.70;99.90
64685;DHT22;51109;47.414;18.954;2023-04-03T03:14:26;4.70;99.90
64685;DHT22;51109;47.414;18.954;2023-04-03T03:16:52;4.60;99.90
64685;DHT22;51109;47.414;18.954;2023-04-03T03:19:18;4.60;99.90
64685;DHT22;51109;47.414;18.954;2023-04-03T03:21:43;4.60;99.90
64685;DHT22;51109;47.414;18.954;2023-04-03T03:24:09;4.50;99.90
64685;DHT22;51109;47.414;18.954;2023-04-03T03:26:35;4.50;99.90
64685;DHT22;51109;47.414;18.954;2023-04-03T03:29:02;4.50;99.90
64685;DHT22;51109;47.414;18.954;2023-04-03T03:31:28;4.50;99.90
64685;DHT22;51109;47.414;18.954;2023-04-03T03:33:54;4.40;99.90
64685;DHT22;51109;47.414;18.954;2023-04-03T03:36:20;4.40;99.90
64685;DHT22;51109;47.414;18.954;2023-04-03T03:38:46;4.40;99.90
64685;DHT22;51109;47.414;18.954;2023-04-03T03:41:12;4.40;99.90
64685;DHT22;51109;47.414;18.954;2023-04-03T03:43:38;4.40;99.90
64685;DHT22;51109;47.414;18.954;2023-04-03T03:46:04;4.30;99.90
64685;DHT22;51109;47.414;18.954;2023-04-03T03:48:30;4.30;99.90
64685;DHT22;51109;47.414;18.954;2023-04-03T03:50:58;4.30;99.90
64685;DHT22;51109;47.414;18.954;2023-04-03T03:53:24;4.30;99.90
64685;DHT22;51109;47.414;18.954;2023-04-03T03:55:50;4.30;99.90
64685;DHT22;51109;47.414;18.954;2023-04-03T03:58:16;4.30;99.90
64685;DHT22;51109;47.414;18.954;2023-04-03T04:00:41;4.30;99.90
64685;DHT22;51109;47.414;18.954;2023-04-03T04:03:07;4.30;99.90
64685;DHT22;51109;47.414;18.954;2023-04-03T04:05:33;4.30;99.90
64685;DHT22;51109;47.414;18.954;2023-04-03T04:08:00;4.40;99.90
64685;DHT22;51109;47.414;18.954;2023-04-03T04:10:26;4.30;99.90
64685;DHT22;51109;47.414;18.954;2023-04-03T04:12:51;4.30;99.90
64685;DHT22;51109;47.414;18.954;2023-04-03T04:15:17;4.30;99.90
64685;DHT22;51109;47.414;18.954;2023-04-03T04:17:43;4.20;99.90
64685;DHT22;51109;47.414;18.954;2023-04-03T04:20:10;4.20;99.90
64685;DHT22;51109;47.414;18.954;2023-04-03T04:22:36;4.20;99.90
64685;DHT22;51109;47.414;18.954;2023-04-03T04:25:03;4.20;99.90
64685;DHT22;51109;47.414;18.954;2023-04-03T04:27:29;4.20;99.90
64685;DHT22;51109;47.414;18.954;2023-04-03T04:29:55;4.20;99.90
64685;DHT22;51109;47.414;18.954;2023-04-03T04:32:21;4.20;99.90
64685;DHT22;51109;47.414;18.954;2023-04-03T04:34:47;4.20;99.90
64685;DHT22;51109;47.414;18.954;2023-04-03T04:37:13;4.20;99.90
64685;DHT22;51109;47.414;18.954;2023-04-03T04:39:39;4.20;99.90
64685;DHT22;51109;47.414;18.954;2023-04-03T04:42:04;4.20;99.90
64685;DHT22;51109;47.414;18.954;2023-04-03T04:44:32;4.10;99.90
64685;DHT22;51109;47.414;18.954;2023-04-03T04:46:58;4.20;99.90
64685;DHT22;51109;47.414;18.954;2023-04-03T04:49:24;4.10;99.90
64685;DHT22;51109;47.414;18.954;2023-04-03T04:51:50;4.10;99.90
64685;DHT22;51109;47.414;18.954;2023-04-03T04:54:16;4.10;99.90
64685;DHT22;51109;47.414;18.954;2023-04-03T04:56:42;4.10;99.90
64685;DHT22;51109;47.414;18.954;2023-04-03T04:59:07;4.20;99.90
64685;DHT22;51109;47.414;18.954;2023-04-03T05:01:33;4.20;99.90
64685;DHT22;51109;47.414;18.954;2023-04-03T05:03:59;4.10;99.90
64685;DHT22;51109;47.414;18.954;2023-04-03T05:06:25;4.10;99.90
64685;DHT22;51109;47.414;18.954;2023-04-03T05:08:51;4.10;99.90
64685;DHT22;51109;47.414;18.954;2023-04-03T05:11:17;4.10;99.90
64685;DHT22;51109;47.414;18.954;2023-04-03T05:13:43;4.20;99.90
64685;DHT22;51109;47.414;18.954;2023-04-03T05:16:09;4.30;99.90
64685;DHT22;51109;47.414;18.954;2023-04-03T05:18:35;4.30;99.90
64685;DHT22;51109;47.414;18.954;2023-04-03T05:21:01;4.30;99.90
64685;DHT22;51109;47.414;18.954;2023-04-03T05:23:27;4.30;99.90
64685;DHT22;51109;47.414;18.954;2023-04-03T05:25:53;4.30;99.90
64685;DHT22;51109;47.414;18.954;2023-04-03T05:28:19;4.30;99.90
64685;DHT22;51109;47.414;18.954;2023-04-03T05:30:45;4.40;99.90
64685;DHT22;51109;47.414;18.954;2023-04-03T05:33:11;4.40;99.90
64685;DHT22;51109;47.414;18.954;2023-04-03T05:35:37;4.50;99.90
64685;DHT22;51109;47.414;18.954;2023-04-03T05:38:07;4.60;99.90
64685;DHT22;51109;47.414;18.954;2023-04-03T05:40:33;4.60;99.90
64685;DHT22;51109;47.414;18.954;2023-04-03T05:42:59;4.60;99.90
64685;DHT22;51109;47.414;18.954;2023-04-03T05:45:25;4.50;99.90
64685;DHT22;51109;47.414;18.954;2023-04-03T05:47:51;4.50;99.90
64685;DHT22;51109;47.414;18.954;2023-04-03T05:50:19;4.40;99.90
64685;DHT22;51109;47.414;18.954;2023-04-03T05:52:47;4.50;99.90
64685;DHT22;51109;47.414;18.954;2023-04-03T05:55:14;4.90;99.90
64685;DHT22;51109;47.414;18.954;2023-04-03T05:57:40;4.90;99.90
64685;DHT22;51109;47.414;18.954;2023-04-03T06:00:08;4.80;99.90
64685;DHT22;51109;47.414;18.954;2023-04-03T06:02:35;4.80;99.90
64685;DHT22;51109;47.414;18.954;2023-04-03T06:05:02;4.70;99.90
64685;DHT22;51109;47.414;18.954;2023-04-03T06:07:28;4.60;99.90
64685;DHT22;51109;47.414;18.954;2023-04-03T06:09:55;4.70;99.90
64685;DHT22;51109;47.414;18.954;2023-04-03T06:12:22;4.90;99.90
64685;DHT22;51109;47.414;18.954;2023-04-03T06:14:48;4.90;99.90
64685;DHT22;51109;47.414;18.954;2023-04-03T06:17:15;4.90;99.90
64685;DHT22;51109;47.414;18.954;2023-04-03T06:19:44;5.00;99.90
64685;DHT22;51109;47.414;18.954;2023-04-03T06:22:10;5.10;99.90
64685;DHT22;51109;47.414;18.954;2023-04-03T06:24:37;5.30;99.90
64685;DHT22;51109;47.414;18.954;2023-04-03T06:27:04;5.50;99.90
64685;DHT22;51109;47.414;18.954;2023-04-03T06:29:30;5.70;99.90
64685;DHT22;51109;47.414;18.954;2023-04-03T06:31:56;5.80;99.90
64685;DHT22;51109;47.414;18.954;2023-04-03T06:34:23;6.00;99.90
64685;DHT22;51109;47.414;18.954;2023-04-03T06:36:49;5.90;99.90
64685;DHT22;51109;47.414;18.954;2023-04-03T06:39:18;5.90;99.90
64685;DHT22;51109;47.414;18.954;2023-04-03T06:41:46;5.90;99.90
64685;DHT22;51109;47.414;18.954;2023-04-03T06:44:12;6.10;99.90
64685;DHT22;51109;47.414;18.954;2023-04-03T06:46:41;6.10;99.90
64685;DHT22;51109;47.414;18.954;2023-04-03T06:49:08;6.00;99.90
64685;DHT22;51109;47.414;18.954;2023-04-03T06:51:34;5.90;99.90
64685;DHT22;51109;47.414;18.954;2023-04-03T06:54:03;6.00;99.90
64685;DHT22;51109;47.414;18.954;2023-04-03T06:56:30;6.00;99.90
64685;DHT22;51109;47.414;18.954;2023-04-03T06:58:56;6.00;99.90
64685;DHT22;51109;47.414;18.954;2023-04-03T07:01:25;6.10;99.90
64685;DHT22;51109;47.414;18.954;2023-04-03T07:03:51;6.20;99.90
64685;DHT22;51109;47.414;18.954;2023-04-03T07:06:20;6.30;99.90
64685;DHT22;51109;47.414;18.954;2023-04-03T07:08:46;6.30;99.90
64685;DHT22;51109;47.414;18.954;2023-04-03T07:11:14;6.30;99.90
64685;DHT22;51109;47.414;18.954;2023-04-03T07:13:40;6.40;99.90
64685;DHT22;51109;47.414;18.954;2023-04-03T07:16:07;6.50;99.90
64685;DHT22;51109;47.414;18.954;2023-04-03T07:18:34;6.50;99.90
64685;DHT22;51109;47.414;18.954;2023-04-03T07:21:01;6.60;99.90
64685;DHT22;51109;47.414;18.954;2023-04-03T07:23:27;6.60;99.90
64685;DHT22;51109;47.414;18.954;2023-04-03T07:25:54;6.80;99.90
64685;DHT22;51109;47.414;18.954;2023-04-03T07:28:21;7.00;99.90
64685;DHT22;51109;47.414;18.954;2023-04-03T07:30:50;7.20;99.90
64685;DHT22;51109;47.414;18.954;2023-04-03T07:33:18;7.30;99.90
64685;DHT22;51109;47.414;18.954;2023-04-03T07:35:45;7.40;99.90
64685;DHT22;51109;47.414;18.954;2023-04-03T07:38:12;7.50;99.90
64685;DHT22;51109;47.414;18.954;2023-04-03T07:40:38;7.60;99.90
64685;DHT22;51109;47.414;18.954;2023-04-03T07:43:05;7.70;99.90
64685;DHT22;51109;47.414;18.954;2023-04-03T07:45:33;7.70;99.90
64685;DHT22;51109;47.414;18.954;2023-04-03T07:48:00;7.70;99.90
64685;DHT22;51109;47.414;18.954;2023-04-03T07:50:26;7.70;99.90
64685;DHT22;51109;47.414;18.954;2023-04-03T07:52:53;7.80;99.90
64685;DHT22;51109;47.414;18.954;2023-04-03T07:55:21;7.80;99.90
64685;DHT22;51109;47.414;18.954;2023-04-03T07:57:47;7.80;99.90
64685;DHT22;51109;47.414;18.954;2023-04-03T08:00:14;8.00;99.90
64685;DHT22;51109;47.414;18.954;2023-04-03T08:02:40;8.00;99.90
64685;DHT22;51109;47.414;18.954;2023-04-03T08:05:06;7.90;99.90
64685;DHT22;51109;47.414;18.954;2023-04-03T08:07:32;8.00;99.90
64685;DHT22;51109;47.414;18.954;2023-04-03T08:09:58;8.10;99.90
64685;DHT22;51109;47.414;18.954;2023-04-03T08:12:24;8.10;99.90
64685;DHT22;51109;47.414;18.954;2023-04-03T08:14:50;8.20;99.90
64685;DHT22;51109;47.414;18.954;2023-04-03T08:17:16;8.10;99.90
64685;DHT22;51109;47.414;18.954;2023-04-03T08:19:42;8.10;99.90
64685;DHT22;51109;47.414;18.954;2023-04-03T08:22:08;8.00;99.90
64685;DHT22;51109;47.414;18.954;2023-04-03T08:24:34;8.00;99.90
64685;DHT22;51109;47.414;18.954;2023-04-03T08:27:00;8.00;99.90
64685;DHT22;51109;47.414;18.954;2023-04-03T08:29:27;8.10;99.90
64685;DHT22;51109;47.414;18.954;2023-04-03T08:31:52;8.20;99.90
64685;DHT22;51109;47.414;18.954;2023-04-03T08:34:19;8.30;99.90
64685;DHT22;51109;47.414;18.954;2023-04-03T08:36:45;8.20;99.90
64685;DHT22;51109;47.414;18.954;2023-04-03T08:39:12;8.20;99.90
64685;DHT22;51109;47.414;18.954;2023-04-03T08:41:45;8.40;99.90
64685;DHT22;51109;47.414;18.954;2023-04-03T08:49:56;8.40;99.90
64685;DHT22;51109;47.414;18.954;2023-04-03T08:52:38;8.50;99.90
64685;DHT22;51109;47.414;18.954;2023-04-03T08:55:20;8.50;99.90
64685;DHT22;51109;47.414;18.954;2023-04-03T08:57:48;8.50;99.90
64685;DHT22;51109;47.414;18.954;2023-04-03T09:00:20;8.70;99.90
64685;DHT22;51109;47.414;18.954;2023-04-03T09:02:48;8.70;99.90
64685;DHT22;51109;47.414;18.954;2023-04-03T09:05:20;8.60;99.90
64685;DHT22;51109;47.414;18.954;2023-04-03T09:08:03;8.70;99.90
64685;DHT22;51109;47.414;18.954;2023-04-03T09:10:33;8.60;99.90
64685;DHT22;51109;47.414;18.954;2023-04-03T09:13:05;8.60;99.90
64685;DHT22;51109;47.414;18.954;2023-04-03T09:15:32;8.60;99.90
64685;DHT22;51109;47.414;18.954;2023-04-03T09:18:05;8.80;99.90
64685;DHT22;51109;47.414;18.954;2023-04-03T09:20:56;8.90;99.90
64685;DHT22;51109;47.414;18.954;2023-04-03T09:26:04;9.10;99.90
64685;DHT22;51109;47.414;18.954;2023-04-03T09:28:37;9.00;99.90
64685;DHT22;51109;47.414;18.954;2023-04-03T09:31:36;9.10;99.90
64685;DHT22;51109;47.414;18.954;2023-04-03T09:34:05;9.10;99.90
64685;DHT22;51109;47.414;18.954;2023-04-03T09:39:11;9.40;99.90
64685;DHT22;51109;47.414;18.954;2023-04-03T09:41:38;9.30;99.90
64685;DHT22;51109;47.414;18.954;2023-04-03T09:44:21;9.30;99.90
64685;DHT22;51109;47.414;18.954;2023-04-03T09:46:47;9.30;99.90
64685;DHT22;51109;47.414;18.954;2023-04-03T09:49:13;9.20;99.90
64685;DHT22;51109;47.414;18.954;2023-04-03T09:51:39;9.20;99.90
64685;DHT22;51109;47.414;18.954;2023-04-03T09:54:29;9.30;99.90
64685;DHT22;51109;47.414;18.954;2023-04-03T09:57:06;9.50;99.90
64685;DHT22;51109;47.414;18.954;2023-04-03T09:59:33;9.70;99.90
64685;DHT22;51109;47.414;18.954;2023-04-03T10:02:00;9.90;99.90
64685;DHT22;51109;47.414;18.954;2023-04-03T10:04:40;10.00;99.90
64685;DHT22;51109;47.414;18.954;2023-04-03T10:07:27;9.70;99.90
64685;DHT22;51109;47.414;18.954;2023-04-03T10:09:58;9.70;99.90
64685;DHT22;51109;47.414;18.954;2023-04-03T10:12:24;9.60;99.90
64685;DHT22;51109;47.414;18.954;2023-04-03T10:14:57;9.80;99.90
64685;DHT22;51109;47.414;18.954;2023-04-03T10:35:48;9.70;99.90
64685;DHT22;51109;47.414;18.954;2023-04-03T10:43:56;9.30;99.90
64685;DHT22;51109;47.414;18.954;2023-04-03T10:46:41;9.10;99.90
64685;DHT22;51109;47.414;18.954;2023-04-03T10:49:38;9.10;99.90
64685;DHT22;51109;47.414;18.954;2023-04-03T10:54:40;9.20;99.90
64685;DHT22;51109;47.414;18.954;2023-04-03T10:57:10;9.30;99.90
64685;DHT22;51109;47.414;18.954;2023-04-03T10:59:53;9.20;99.90
64685;DHT22;51109;47.414;18.954;2023-04-03T11:02:57;9.20;99.90
64685;DHT22;51109;47.414;18.954;2023-04-03T11:07:57;9.30;99.90
64685;DHT22;51109;47.414;18.954;2023-04-03T11:10:43;9.30;99.90
64685;DHT22;51109;47.414;18.954;2023-04-03T11:13:34;9.30;99.90
64685;DHT22;51109;47.414;18.954;2023-04-03T11:16:02;9.30;99.90
64685;DHT22;51109;47.414;18.954;2023-04-03T11:18:52;9.30;99.90
64685;DHT22;51109;47.414;18.954;2023-04-03T11:21:24;9.40;99.90
64685;DHT22;51109;47.414;18.954;2023-04-03T11:23:56;9.30;99.90
64685;DHT22;51109;47.414;18.954;2023-04-03T11:26:27;9.30;99.90
64685;DHT22;51109;47.414;18.954;2023-04-03T11:29:18;9.40;99.90
64685;DHT22;51109;47.414;18.954;2023-04-03T11:34:44;9.30;99.90
64685;DHT22;51109;47.414;18.954;2023-04-03T11:37:50;9.30;99.90
64685;DHT22;51109;47.414;18.954;2023-04-03T11:40:21;9.30;99.90
64685;DHT22;51109;47.414;18.954;2023-04-03T11:45:50;9.30;99.90
64685;DHT22;51109;47.414;18.954;2023-04-03T11:50:47;9.40;99.90
64685;DHT22;51109;47.414;18.954;2023-04-03T11:55:53;9.40;99.90
64685;DHT22;51109;47.414;18.954;2023-04-03T11:58:23;9.50;99.90
64685;DHT22;51109;47.414;18.954;2023-04-03T12:01:09;9.50;99.90
64685;DHT22;51109;47.414;18.954;2023-04-03T12:30:01;9.70;99.90
64685;DHT22;51109;47.414;18.954;2023-04-03T12:41:21;9.50;99.90
64685;DHT22;51109;47.414;18.954;2023-04-03T12:46:21;9.50;99.90
64685;DHT22;51109;47.414;18.954;2023-04-03T12:48:49;9.50;99.90
64685;DHT22;51109;47.414;18.954;2023-04-03T12:51:34;9.50;99.90
64685;DHT22;51109;47.414;18.954;2023-04-03T12:54:12;9.50;99.90
64685;DHT22;51109;47.414;18.954;2023-04-03T12:56:39;9.50;99.90
64685;DHT22;51109;47.414;18.954;2023-04-03T13:01:43;9.50;99.90
64685;DHT22;51109;47.414;18.954;2023-04-03T13:04:11;9.50;99.90
64685;DHT22;51109;47.414;18.954;2023-04-03T13:06:43;9.50;99.90
64685;DHT22;51109;47.414;18.954;2023-04-03T13:09:35;9.60;99.90
64685;DHT22;51109;47.414;18.954;2023-04-03T13:12:07;9.60;99.90
64685;DHT22;51109;47.414;18.954;2023-04-03T13:14:34;9.70;99.90
64685;DHT22;51109;47.414;18.954;2023-04-03T13:19:30;9.90;99.90
64685;DHT22;51109;47.414;18.954;2023-04-03T13:22:02;10.00;99.90
64685;DHT22;51109;47.414;18.954;2023-04-03T13:24:33;10.00;99.90
64685;DHT22;51109;47.414;18.954;2023-04-03T13:27:00;10.00;99.90
64685;DHT22;51109;47.414;18.954;2023-04-03T13:29:32;10.00;99.90
64685;DHT22;51109;47.414;18.954;2023-04-03T13:32:00;10.00;99.90
64685;DHT22;51109;47.414;18.954;2023-04-03T13:34:34;10.00;99.90
64685;DHT22;51109;47.414;18.954;2023-04-03T13:37:01;10.00;99.90
64685;DHT22;51109;47.414;18.954;2023-04-03T13:39:32;10.00;99.90
64685;DHT22;51109;47.414;18.954;2023-04-03T13:42:03;10.00;99.90
64685;DHT22;51109;47.414;18.954;2023-04-03T13:44:39;10.00;99.90
64685;DHT22;51109;47.414;18.954;2023-04-03T13:49:58;10.00;99.90
64685;DHT22;51109;47.414;18.954;2023-04-03T13:52:32;10.00;99.90
64685;DHT22;51109;47.414;18.954;2023-04-03T14:00:50;9.90;99.90
64685;DHT22;51109;47.414;18.954;2023-04-03T14:05:45;9.90;99.90
64685;DHT22;51109;47.414;18.954;2023-04-03T14:08:11;9.90;99.90
64685;DHT22;51109;47.414;18.954;2023-04-03T14:10:37;9.90;99.90
64685;DHT22;51109;47.414;18.954;2023-04-03T14:13:04;9.90;99.90
64685;DHT22;51109;47.414;18.954;2023-04-03T14:15:31;10.00;99.90
64685;DHT22;51109;47.414;18.954;2023-04-03T14:17:57;9.90;99.90
64685;DHT22;51109;47.414;18.954;2023-04-03T14:20:26;10.00;99.90
64685;DHT22;51109;47.414;18.954;2023-04-03T14:22:52;10.00;99.90
64685;DHT22;51109;47.414;18.954;2023-04-03T14:25:20;9.90;99.90
64685;DHT22;51109;47.414;18.954;2023-04-03T14:27:50;10.00;99.90
64685;DHT22;51109;47.414;18.954;2023-04-03T14:30:29;9.90;99.90
64685;DHT22;51109;47.414;18.954;2023-04-03T14:32:56;9.80;99.90
64685;DHT22;51109;47.414;18.954;2023-04-03T14:35:22;9.80;99.90
64685;DHT22;51109;47.414;18.954;2023-04-03T14:37:52;9.80;99.90
64685;DHT22;51109;47.414;18.954;2023-04-03T14:40:22;9.50;99.90
64685;DHT22;51109;47.414;18.954;2023-04-03T14:42:49;9.50;99.90
64685;DHT22;51109;47.414;18.954;2023-04-03T14:45:17;9.40;99.90
64685;DHT22;51109;47.414;18.954;2023-04-03T14:47:52;9.20;99.90
64685;DHT22;51109;47.414;18.954;2023-04-03T14:50:22;9.20;99.90
64685;DHT22;51109;47.414;18.954;2023-04-03T14:52:50;9.20;99.90
64685;DHT22;51109;47.414;18.954;2023-04-03T14:55:18;9.10;99.90
64685;DHT22;51109;47.414;18.954;2023-04-03T14:57:45;9.00;99.90
64685;DHT22;51109;47.414;18.954;2023-04-03T15:00:17;8.90;99.90
64685;DHT22;51109;47.414;18.954;2023-04-03T15:02:43;8.80;99.90
64685;DHT22;51109;47.414;18.954;2023-04-03T15:05:11;8.80;99.90
64685;DHT22;51109;47.414;18.954;2023-04-03T15:07:42;8.90;99.90
64685;DHT22;51109;47.414;18.954;2023-04-03T15:10:20;8.80;99.90
64685;DHT22;51109;47.414;18.954;2023-04-03T15:12:48;8.80;99.90
64685;DHT22;51109;47.414;18.954;2023-04-03T15:15:14;8.70;99.90
64685;DHT22;51109;47.414;18.954;2023-04-03T15:17:41;8.70;99.90
64685;DHT22;51109;47.414;18.954;2023-04-03T15:20:16;8.60;99.90
64685;DHT22;51109;47.414;18.954;2023-04-03T15:22:43;8.60;99.90
64685;DHT22;51109;47.414;18.954;2023-04-03T15:25:09;8.60;99.90
64685;DHT22;51109;47.414;18.954;2023-04-03T15:27:36;8.50;99.90
64685;DHT22;51109;47.414;18.954;2023-04-03T15:30:04;8.50;99.90
64685;DHT22;51109;47.414;18.954;2023-04-03T15:32:31;8.50;99.90
64685;DHT22;51109;47.414;18.954;2023-04-03T15:34:59;8.50;99.90
64685;DHT22;51109;47.414;18.954;2023-04-03T15:37:25;8.50;99.90
64685;DHT22;51109;47.414;18.954;2023-04-03T15:39:51;8.50;99.90
64685;DHT22;51109;47.414;18.954;2023-04-03T15:42:17;8.50;99.90
64685;DHT22;51109;47.414;18.954;2023-04-03T15:44:43;8.50;99.90
64685;DHT22;51109;47.414;18.954;2023-04-03T15:47:09;8.50;99.90
64685;DHT22;51109;47.414;18.954;2023-04-03T15:49:35;8.50;99.90
64685;DHT22;51109;47.414;18.954;2023-04-03T15:52:01;8.40;99.90
64685;DHT22;51109;47.414;18.954;2023-04-03T15:54:27;8.30;99.90
64685;DHT22;51109;47.414;18.954;2023-04-03T15:56:55;8.20;99.90
64685;DHT22;51109;47.414;18.954;2023-04-03T15:59:21;8.10;99.90
64685;DHT22;51109;47.414;18.954;2023-04-03T16:01:48;8.00;99.90
64685;DHT22;51109;47.414;18.954;2023-04-03T16:04:16;8.00;99.90
64685;DHT22;51109;47.414;18.954;2023-04-03T16:06:42;8.00;99.90
64685;DHT22;51109;47.414;18.954;2023-04-03T16:09:09;7.90;99.90
64685;DHT22;51109;47.414;18.954;2023-04-03T16:11:36;7.90;99.90
64685;DHT22;51109;47.414;18.954;2023-04-03T16:14:08;7.90;99.90
64685;DHT22;51109;47.414;18.954;2023-04-03T16:16:35;7.80;99.90
64685;DHT22;51109;47.414;18.954;2023-04-03T16:19:01;7.70;99.90
64685;DHT22;51109;47.414;18.954;2023-04-03T16:21:28;7.70;99.90
64685;DHT22;51109;47.414;18.954;2023-04-03T16:23:57;7.70;99.90
64685;DHT22;51109;47.414;18.954;2023-04-03T16:26:23;7.60;99.90
64685;DHT22;51109;47.414;18.954;2023-04-03T16:28:48;7.60;99.90
64685;DHT22;51109;47.414;18.954;2023-04-03T16:31:15;7.60;99.90
64685;DHT22;51109;47.414;18.954;2023-04-03T16:33:41;7.60;99.90
64685;DHT22;51109;47.414;18.954;2023-04-03T16:36:07;7.60;99.90
64685;DHT22;51109;47.414;18.954;2023-04-03T16:38:33;7.60;99.90
64685;DHT22;51109;47.414;18.954;2023-04-03T16:40:59;7.60;99.90
64685;DHT22;51109;47.414;18.954;2023-04-03T16:43:30;7.60;99.90
64685;DHT22;51109;47.414;18.954;2023-04-03T16:45:57;7.50;99.90
64685;DHT22;51109;47.414;18.954;2023-04-03T16:48:23;7.50;99.90
64685;DHT22;51109;47.414;18.954;2023-04-03T16:50:49;7.50;99.90
64685;DHT22;51109;47.414;18.954;2023-04-03T16:53:22;7.50;99.90
64685;DHT22;51109;47.414;18.954;2023-04-03T16:55:49;7.50;99.90
64685;DHT22;51109;47.414;18.954;2023-04-03T16:58:15;7.50;99.90
64685;DHT22;51109;47.414;18.954;2023-04-03T17:00:42;7.40;99.90
64685;DHT22;51109;47.414;18.954;2023-04-03T17:03:08;7.40;99.90
64685;DHT22;51109;47.414;18.954;2023-04-03T17:05:34;7.40;99.90
64685;DHT22;51109;47.414;18.954;2023-04-03T17:08:01;7.40;99.90
64685;DHT22;51109;47.414;18.954;2023-04-03T17:10:27;7.50;99.90
64685;DHT22;51109;47.414;18.954;2023-04-03T17:12:53;7.50;99.90
64685;DHT22;51109;47.414;18.954;2023-04-03T17:15:20;7.50;99.90
64685;DHT22;51109;47.414;18.954;2023-04-03T17:17:51;7.50;99.90
64685;DHT22;51109;47.414;18.954;2023-04-03T17:20:17;7.50;99.90
64685;DHT22;51109;47.414;18.954;2023-04-03T17:22:43;7.50;99.90
64685;DHT22;51109;47.414;18.954;2023-04-03T17:25:10;7.50;99.90
64685;DHT22;51109;47.414;18.954;2023-04-03T17:27:37;7.50;99.90
64685;DHT22;51109;47.414;18.954;2023-04-03T17:30:04;7.50;99.90
64685;DHT22;51109;47.414;18.954;2023-04-03T17:32:31;7.50;99.90